Terminal Aerodrome Forecast
Issued by NWS

Home | Current Version | Previous Version | Text Only | Print | Product List | Glossary On
Versions: 1 2 3 4 5 6 7 8 9 10 11 12 13 14 15 16 17 18 19
799
FTUS46 KHNX 071139
TAFFAT
TAF
KFAT 071139Z 0712/0812 VRB03KT 1/4SM FG VV001
     FM071700 VRB03KT 1SM BR BKN004
     FM072000 VRB03KT 3SM HZ BKN025
     FM080000 VRB03KT 5SM HZ FEW060 BKN100 PROB30 0806/0812 -RA
      BKN060=

USA.gov is the U.S. government's official web portal to all federal, state and local government web resources and services.